sensor_id;sensor_type;location;lat;lon;timestamp;temperature;humidity
296;DHT22;132;48.770;9.200;2022-09-09T00:00:15;16.40;1.00
296;DHT22;132;48.770;9.200;2022-09-09T00:03:21;16.40;1.00
296;DHT22;132;48.770;9.200;2022-09-09T00:09:10;16.30;1.00
296;DHT22;132;48.770;9.200;2022-09-09T00:12:06;16.30;1.00
296;DHT22;132;48.770;9.200;2022-09-09T00:15:20;16.40;1.00
296;DHT22;132;48.770;9.200;2022-09-09T00:21:07;16.30;1.00
296;DHT22;132;48.770;9.200;2022-09-09T00:26:52;16.40;1.00
296;DHT22;132;48.770;9.200;2022-09-09T00:29:51;16.30;1.00
296;DHT22;132;48.770;9.200;2022-09-09T00:59:44;17.00;1.00
296;DHT22;132;48.770;9.200;2022-09-09T01:17:34;17.10;1.00
296;DHT22;132;48.770;9.200;2022-09-09T01:23:38;17.20;1.00
296;DHT22;132;48.770;9.200;2022-09-09T01:26:46;17.10;1.00
296;DHT22;132;48.770;9.200;2022-09-09T01:29:43;17.30;1.00
296;DHT22;132;48.770;9.200;2022-09-09T01:32:52;17.10;1.00
296;DHT22;132;48.770;9.200;2022-09-09T01:38:28;17.20;1.00
296;DHT22;132;48.770;9.200;2022-09-09T01:44:11;17.20;1.00
296;DHT22;132;48.770;9.200;2022-09-09T01:47:00;17.20;1.00
296;DHT22;132;48.770;9.200;2022-09-09T02:04:49;17.20;1.00
296;DHT22;132;48.770;9.200;2022-09-09T02:07:50;17.10;1.00
296;DHT22;132;48.770;9.200;2022-09-09T02:11:13;17.10;1.00
296;DHT22;132;48.770;9.200;2022-09-09T02:14:17;16.80;1.00
296;DHT22;132;48.770;9.200;2022-09-09T02:17:10;17.00;1.00
296;DHT22;132;48.770;9.200;2022-09-09T02:20:18;17.00;1.00
296;DHT22;132;48.770;9.200;2022-09-09T02:31:44;16.80;1.00
296;DHT22;132;48.770;9.200;2022-09-09T02:34:42;16.80;1.00
296;DHT22;132;48.770;9.200;2022-09-09T02:37:36;16.30;1.00
296;DHT22;132;48.770;9.200;2022-09-09T02:56:00;16.40;1.00
296;DHT22;132;48.770;9.200;2022-09-09T03:01:40;16.40;1.00
296;DHT22;132;48.770;9.200;2022-09-09T03:10:05;16.20;1.00
296;DHT22;132;48.770;9.200;2022-09-09T03:21:17;16.30;1.00
296;DHT22;132;48.770;9.200;2022-09-09T03:26:53;16.40;1.00
296;DHT22;132;48.770;9.200;2022-09-09T03:32:31;16.40;1.00
296;DHT22;132;48.770;9.200;2022-09-09T03:38:06;16.60;1.00
296;DHT22;132;48.770;9.200;2022-09-09T03:40:56;16.60;1.00
296;DHT22;132;48.770;9.200;2022-09-09T03:46:31;16.40;1.00
296;DHT22;132;48.770;9.200;2022-09-09T03:52:08;16.70;1.00
296;DHT22;132;48.770;9.200;2022-09-09T03:54:55;16.60;1.00
296;DHT22;132;48.770;9.200;2022-09-09T04:06:06;16.60;1.00
296;DHT22;132;48.770;9.200;2022-09-09T04:14:29;16.50;1.00
296;DHT22;132;48.770;9.200;2022-09-09T04:20:03;16.50;1.00
296;DHT22;132;48.770;9.200;2022-09-09T04:22:50;16.50;1.00
296;DHT22;132;48.770;9.200;2022-09-09T04:25:37;16.50;1.00
296;DHT22;132;48.770;9.200;2022-09-09T04:28:26;16.30;1.00
296;DHT22;132;48.770;9.200;2022-09-09T04:31:19;16.30;1.00
296;DHT22;132;48.770;9.200;2022-09-09T04:34:09;16.30;1.00
296;DHT22;132;48.770;9.200;2022-09-09T04:36:56;16.00;1.00
296;DHT22;132;48.770;9.200;2022-09-09T04:39:43;16.30;1.00
296;DHT22;132;48.770;9.200;2022-09-09T04:42:35;16.30;1.00
296;DHT22;132;48.770;9.200;2022-09-09T04:45:22;15.90;1.00
296;DHT22;132;48.770;9.200;2022-09-09T04:48:09;16.20;1.00
296;DHT22;132;48.770;9.200;2022-09-09T04:51:06;16.30;1.00
296;DHT22;132;48.770;9.200;2022-09-09T05:13:36;16.00;1.00
296;DHT22;132;48.770;9.200;2022-09-09T05:16:23;16.00;1.00
296;DHT22;132;48.770;9.200;2022-09-09T05:22:04;16.20;1.00
296;DHT22;132;48.770;9.200;2022-09-09T05:24:59;16.30;1.00
296;DHT22;132;48.770;9.200;2022-09-09T05:27:47;16.40;1.00
296;DHT22;132;48.770;9.200;2022-09-09T05:33:24;16.60;1.00
296;DHT22;132;48.770;9.200;2022-09-09T05:39:01;16.80;1.00
296;DHT22;132;48.770;9.200;2022-09-09T05:41:49;16.60;1.00
296;DHT22;132;48.770;9.200;2022-09-09T05:44:36;16.80;1.00
296;DHT22;132;48.770;9.200;2022-09-09T05:55:46;17.10;1.00
296;DHT22;132;48.770;9.200;2022-09-09T05:58:34;17.00;1.00
296;DHT22;132;48.770;9.200;2022-09-09T06:01:30;17.20;1.00
296;DHT22;132;48.770;9.200;2022-09-09T06:04:17;17.20;1.00
296;DHT22;132;48.770;9.200;2022-09-09T06:07:05;17.20;1.00
296;DHT22;132;48.770;9.200;2022-09-09T06:09:52;17.30;1.00
296;DHT22;132;48.770;9.200;2022-09-09T06:12:39;17.20;1.00
296;DHT22;132;48.770;9.200;2022-09-09T06:15:27;17.20;1.00
296;DHT22;132;48.770;9.200;2022-09-09T06:18:16;17.20;1.00
296;DHT22;132;48.770;9.200;2022-09-09T06:21:08;17.30;1.00
296;DHT22;132;48.770;9.200;2022-09-09T06:26:42;17.20;1.00
296;DHT22;132;48.770;9.200;2022-09-09T06:29:33;17.20;1.00
296;DHT22;132;48.770;9.200;2022-09-09T06:32:21;17.20;1.00
296;DHT22;132;48.770;9.200;2022-09-09T06:35:09;17.20;1.00
296;DHT22;132;48.770;9.200;2022-09-09T06:37:57;17.30;1.00
296;DHT22;132;48.770;9.200;2022-09-09T06:40:56;17.20;1.00
296;DHT22;132;48.770;9.200;2022-09-09T06:43:48;17.40;1.00
296;DHT22;132;48.770;9.200;2022-09-09T06:46:34;17.50;1.00
296;DHT22;132;48.770;9.200;2022-09-09T06:52:10;17.60;1.00
296;DHT22;132;48.770;9.200;2022-09-09T06:54:58;17.50;1.00
296;DHT22;132;48.770;9.200;2022-09-09T06:57:46;17.60;1.00
296;DHT22;132;48.770;9.200;2022-09-09T07:00:37;17.70;1.00
296;DHT22;132;48.770;9.200;2022-09-09T07:03:25;17.80;1.00
296;DHT22;132;48.770;9.200;2022-09-09T07:06:18;17.80;1.00
296;DHT22;132;48.770;9.200;2022-09-09T07:09:08;17.90;1.00
296;DHT22;132;48.770;9.200;2022-09-09T07:11:55;18.20;1.00
296;DHT22;132;48.770;9.200;2022-09-09T07:17:35;18.10;1.00
296;DHT22;132;48.770;9.200;2022-09-09T07:20:22;18.20;1.00
296;DHT22;132;48.770;9.200;2022-09-09T07:25:58;18.50;1.00
296;DHT22;132;48.770;9.200;2022-09-09T07:28:45;18.70;1.00
296;DHT22;132;48.770;9.200;2022-09-09T07:31:34;18.50;1.00
296;DHT22;132;48.770;9.200;2022-09-09T07:34:22;18.60;1.00
296;DHT22;132;48.770;9.200;2022-09-09T07:37:09;18.70;1.00
296;DHT22;132;48.770;9.200;2022-09-09T07:39:59;18.90;1.00
296;DHT22;132;48.770;9.200;2022-09-09T07:42:47;19.00;1.00
296;DHT22;132;48.770;9.200;2022-09-09T07:45:34;19.10;1.00
296;DHT22;132;48.770;9.200;2022-09-09T07:51:14;19.10;1.00
296;DHT22;132;48.770;9.200;2022-09-09T07:54:06;19.00;1.00
296;DHT22;132;48.770;9.200;2022-09-09T07:59:43;18.60;1.00
296;DHT22;132;48.770;9.200;2022-09-09T08:02:31;18.90;1.00
296;DHT22;132;48.770;9.200;2022-09-09T08:05:19;19.10;1.00
296;DHT22;132;48.770;9.200;2022-09-09T08:08:06;18.80;1.00
296;DHT22;132;48.770;9.200;2022-09-09T08:10:52;18.90;1.00
296;DHT22;132;48.770;9.200;2022-09-09T08:13:41;18.90;1.00
296;DHT22;132;48.770;9.200;2022-09-09T08:16:30;19.20;1.00
296;DHT22;132;48.770;9.200;2022-09-09T08:19:18;19.10;1.00
296;DHT22;132;48.770;9.200;2022-09-09T08:27:43;19.30;1.00
296;DHT22;132;48.770;9.200;2022-09-09T08:30:29;19.20;1.00
296;DHT22;132;48.770;9.200;2022-09-09T08:36:05;19.20;1.00
296;DHT22;132;48.770;9.200;2022-09-09T08:38:55;19.60;1.00
296;DHT22;132;48.770;9.200;2022-09-09T08:50:29;19.40;1.00
296;DHT22;132;48.770;9.200;2022-09-09T08:53:33;20.20;1.00
296;DHT22;132;48.770;9.200;2022-09-09T08:56:27;20.10;1.00
296;DHT22;132;48.770;9.200;2022-09-09T08:59:18;20.40;1.00
296;DHT22;132;48.770;9.200;2022-09-09T09:02:17;20.20;1.00
296;DHT22;132;48.770;9.200;2022-09-09T09:05:32;20.40;1.00
296;DHT22;132;48.770;9.200;2022-09-09T09:08:42;20.40;1.00
296;DHT22;132;48.770;9.200;2022-09-09T09:11:39;20.40;1.00
296;DHT22;132;48.770;9.200;2022-09-09T09:14:30;20.30;1.00
296;DHT22;132;48.770;9.200;2022-09-09T09:17:24;20.50;1.00
296;DHT22;132;48.770;9.200;2022-09-09T09:20:14;20.50;1.00
296;DHT22;132;48.770;9.200;2022-09-09T09:23:03;20.50;1.00
296;DHT22;132;48.770;9.200;2022-09-09T09:25:58;20.50;1.00
296;DHT22;132;48.770;9.200;2022-09-09T09:28:46;20.30;1.00
296;DHT22;132;48.770;9.200;2022-09-09T09:31:36;20.20;1.00
296;DHT22;132;48.770;9.200;2022-09-09T09:37:16;19.40;1.00
296;DHT22;132;48.770;9.200;2022-09-09T09:40:24;19.30;1.00
296;DHT22;132;48.770;9.200;2022-09-09T09:43:20;18.70;1.00
296;DHT22;132;48.770;9.200;2022-09-09T09:46:23;20.60;1.00
296;DHT22;132;48.770;9.200;2022-09-09T09:49:11;18.90;1.00
296;DHT22;132;48.770;9.200;2022-09-09T09:52:01;18.70;1.00
296;DHT22;132;48.770;9.200;2022-09-09T09:54:50;18.80;1.00
296;DHT22;132;48.770;9.200;2022-09-09T09:57:37;18.60;1.00
296;DHT22;132;48.770;9.200;2022-09-09T10:00:28;18.90;1.00
296;DHT22;132;48.770;9.200;2022-09-09T10:06:16;19.00;1.00
296;DHT22;132;48.770;9.200;2022-09-09T10:09:17;19.30;1.00
296;DHT22;132;48.770;9.200;2022-09-09T10:15:30;19.50;1.00
296;DHT22;132;48.770;9.200;2022-09-09T10:18:55;19.30;1.00
296;DHT22;132;48.770;9.200;2022-09-09T10:22:05;19.80;1.00
296;DHT22;132;48.770;9.200;2022-09-09T10:37:07;20.30;1.00
296;DHT22;132;48.770;9.200;2022-09-09T10:46:12;20.50;1.00
296;DHT22;132;48.770;9.200;2022-09-09T10:55:41;21.00;1.00
296;DHT22;132;48.770;9.200;2022-09-09T10:58:38;21.30;1.00
296;DHT22;132;48.770;9.200;2022-09-09T11:01:44;21.00;1.00
296;DHT22;132;48.770;9.200;2022-09-09T11:07:41;21.80;1.00
296;DHT22;132;48.770;9.200;2022-09-09T11:10:42;21.80;1.00
296;DHT22;132;48.770;9.200;2022-09-09T11:17:31;22.00;1.00
296;DHT22;132;48.770;9.200;2022-09-09T11:22:39;22.00;1.00
296;DHT22;132;48.770;9.200;2022-09-09T11:25:51;21.80;1.00
296;DHT22;132;48.770;9.200;2022-09-09T11:32:07;21.40;1.00
296;DHT22;132;48.770;9.200;2022-09-09T11:35:20;21.10;1.00
296;DHT22;132;48.770;9.200;2022-09-09T11:38:27;20.80;1.00
296;DHT22;132;48.770;9.200;2022-09-09T11:41:15;21.00;1.00
296;DHT22;132;48.770;9.200;2022-09-09T11:44:10;21.20;1.00
296;DHT22;132;48.770;9.200;2022-09-09T11:46:57;21.00;1.00
296;DHT22;132;48.770;9.200;2022-09-09T11:49:44;21.10;1.00
296;DHT22;132;48.770;9.200;2022-09-09T11:52:40;21.00;1.00
296;DHT22;132;48.770;9.200;2022-09-09T11:55:35;21.00;1.00
296;DHT22;132;48.770;9.200;2022-09-09T11:58:23;21.00;1.00
296;DHT22;132;48.770;9.200;2022-09-09T12:01:35;21.00;1.00
296;DHT22;132;48.770;9.200;2022-09-09T12:04:36;21.10;1.00
296;DHT22;132;48.770;9.200;2022-09-09T12:10:33;17.30;1.00
296;DHT22;132;48.770;9.200;2022-09-09T12:13:23;21.30;1.00
296;DHT22;132;48.770;9.200;2022-09-09T12:16:30;21.40;1.00
296;DHT22;132;48.770;9.200;2022-09-09T12:19:21;21.10;1.00
296;DHT22;132;48.770;9.200;2022-09-09T12:28:55;20.70;1.00
296;DHT22;132;48.770;9.200;2022-09-09T12:37:37;21.20;1.00
296;DHT22;132;48.770;9.200;2022-09-09T12:40:25;21.10;1.00
296;DHT22;132;48.770;9.200;2022-09-09T12:43:18;21.50;1.00
296;DHT22;132;48.770;9.200;2022-09-09T12:46:17;21.80;1.00
296;DHT22;132;48.770;9.200;2022-09-09T12:49:26;21.90;1.00
296;DHT22;132;48.770;9.200;2022-09-09T12:55:07;22.00;1.00
296;DHT22;132;48.770;9.200;2022-09-09T12:57:58;22.00;1.00
296;DHT22;132;48.770;9.200;2022-09-09T13:00:52;22.00;1.00
296;DHT22;132;48.770;9.200;2022-09-09T13:03:43;21.70;1.00
296;DHT22;132;48.770;9.200;2022-09-09T13:12:15;21.60;1.00
296;DHT22;132;48.770;9.200;2022-09-09T13:15:03;21.80;1.00
296;DHT22;132;48.770;9.200;2022-09-09T13:17:52;21.90;1.00
296;DHT22;132;48.770;9.200;2022-09-09T13:20:39;22.00;1.00
296;DHT22;132;48.770;9.200;2022-09-09T13:23:37;22.50;1.00
296;DHT22;132;48.770;9.200;2022-09-09T13:26:26;22.70;1.00
296;DHT22;132;48.770;9.200;2022-09-09T13:29:17;22.80;1.00
296;DHT22;132;48.770;9.200;2022-09-09T13:32:16;22.90;1.00
296;DHT22;132;48.770;9.200;2022-09-09T13:35:03;23.00;1.00
296;DHT22;132;48.770;9.200;2022-09-09T13:37:50;23.30;1.00
296;DHT22;132;48.770;9.200;2022-09-09T13:40:37;23.70;1.00
296;DHT22;132;48.770;9.200;2022-09-09T13:43:25;24.30;1.00
296;DHT22;132;48.770;9.200;2022-09-09T13:46:38;24.10;1.00
296;DHT22;132;48.770;9.200;2022-09-09T13:49:29;23.60;1.00
296;DHT22;132;48.770;9.200;2022-09-09T13:55:05;23.30;1.00
296;DHT22;132;48.770;9.200;2022-09-09T13:57:58;23.40;1.00
296;DHT22;132;48.770;9.200;2022-09-09T14:00:47;23.40;1.00
296;DHT22;132;48.770;9.200;2022-09-09T14:03:33;24.10;1.00
296;DHT22;132;48.770;9.200;2022-09-09T14:06:21;24.10;1.00
296;DHT22;132;48.770;9.200;2022-09-09T14:09:13;24.80;1.00
296;DHT22;132;48.770;9.200;2022-09-09T14:12:00;25.40;1.00
296;DHT22;132;48.770;9.200;2022-09-09T14:14:46;26.20;1.00
296;DHT22;132;48.770;9.200;2022-09-09T14:17:33;26.20;1.00
296;DHT22;132;48.770;9.200;2022-09-09T14:20:22;26.70;1.00
296;DHT22;132;48.770;9.200;2022-09-09T14:23:10;26.70;1.00
296;DHT22;132;48.770;9.200;2022-09-09T14:25:57;26.90;1.00
296;DHT22;132;48.770;9.200;2022-09-09T14:28:44;25.70;1.00
296;DHT22;132;48.770;9.200;2022-09-09T14:31:32;24.90;1.00
296;DHT22;132;48.770;9.200;2022-09-09T14:39:53;24.00;1.00
296;DHT22;132;48.770;9.200;2022-09-09T14:42:40;24.00;1.00
296;DHT22;132;48.770;9.200;2022-09-09T14:45:27;23.70;1.00
296;DHT22;132;48.770;9.200;2022-09-09T14:48:14;23.60;1.00
296;DHT22;132;48.770;9.200;2022-09-09T14:51:22;23.80;1.00
296;DHT22;132;48.770;9.200;2022-09-09T14:54:09;24.20;1.00
296;DHT22;132;48.770;9.200;2022-09-09T14:56:57;24.30;1.00
296;DHT22;132;48.770;9.200;2022-09-09T15:10:59;22.80;1.00
296;DHT22;132;48.770;9.200;2022-09-09T15:19:21;22.30;1.00
296;DHT22;132;48.770;9.200;2022-09-09T15:22:08;21.90;1.00
296;DHT22;132;48.770;9.200;2022-09-09T15:24:54;21.90;1.00
296;DHT22;132;48.770;9.200;2022-09-09T15:27:41;21.90;1.00
296;DHT22;132;48.770;9.200;2022-09-09T15:33:15;21.80;1.00
296;DHT22;132;48.770;9.200;2022-09-09T15:36:22;21.40;1.00
296;DHT22;132;48.770;9.200;2022-09-09T15:39:11;22.00;1.00
296;DHT22;132;48.770;9.200;2022-09-09T15:42:02;21.90;1.00
296;DHT22;132;48.770;9.200;2022-09-09T15:44:48;21.80;1.00
296;DHT22;132;48.770;9.200;2022-09-09T15:47:35;21.60;1.00
296;DHT22;132;48.770;9.200;2022-09-09T15:53:09;21.40;1.00
296;DHT22;132;48.770;9.200;2022-09-09T15:58:43;21.10;1.00
296;DHT22;132;48.770;9.200;2022-09-09T16:01:31;21.00;1.00
296;DHT22;132;48.770;9.200;2022-09-09T16:04:18;21.10;1.00
296;DHT22;132;48.770;9.200;2022-09-09T16:07:11;20.60;1.00
296;DHT22;132;48.770;9.200;2022-09-09T16:12:44;20.70;1.00
296;DHT22;132;48.770;9.200;2022-09-09T16:15:31;20.50;1.00
296;DHT22;132;48.770;9.200;2022-09-09T16:18:17;20.60;1.00
296;DHT22;132;48.770;9.200;2022-09-09T16:21:05;20.60;1.00
296;DHT22;132;48.770;9.200;2022-09-09T16:26:42;20.40;1.00
296;DHT22;132;48.770;9.200;2022-09-09T16:29:31;20.20;1.00
296;DHT22;132;48.770;9.200;2022-09-09T16:35:05;20.40;1.00
296;DHT22;132;48.770;9.200;2022-09-09T16:37:52;20.40;1.00
296;DHT22;132;48.770;9.200;2022-09-09T16:43:27;20.40;1.00
296;DHT22;132;48.770;9.200;2022-09-09T16:46:18;20.20;1.00
296;DHT22;132;48.770;9.200;2022-09-09T16:49:07;20.10;1.00
296;DHT22;132;48.770;9.200;2022-09-09T16:51:57;19.70;1.00
296;DHT22;132;48.770;9.200;2022-09-09T16:57:31;19.90;1.00
296;DHT22;132;48.770;9.200;2022-09-09T17:00:18;19.50;1.00
296;DHT22;132;48.770;9.200;2022-09-09T17:03:04;19.40;1.00
296;DHT22;132;48.770;9.200;2022-09-09T17:05:52;19.70;1.00
296;DHT22;132;48.770;9.200;2022-09-09T17:08:39;19.50;1.00
296;DHT22;132;48.770;9.200;2022-09-09T17:14:17;19.30;1.00
296;DHT22;132;48.770;9.200;2022-09-09T17:22:38;19.00;1.00
296;DHT22;132;48.770;9.200;2022-09-09T17:25:24;18.80;1.00
296;DHT22;132;48.770;9.200;2022-09-09T17:28:12;18.60;1.00
296;DHT22;132;48.770;9.200;2022-09-09T17:33:52;18.50;1.00
296;DHT22;132;48.770;9.200;2022-09-09T17:36:41;18.20;1.00
296;DHT22;132;48.770;9.200;2022-09-09T17:39:30;18.40;1.00
296;DHT22;132;48.770;9.200;2022-09-09T17:45:07;18.30;1.00
296;DHT22;132;48.770;9.200;2022-09-09T17:47:54;18.20;1.00
296;DHT22;132;48.770;9.200;2022-09-09T17:59:06;18.20;1.00
296;DHT22;132;48.770;9.200;2022-09-09T18:01:53;17.90;1.00
296;DHT22;132;48.770;9.200;2022-09-09T18:13:02;17.80;1.00
296;DHT22;132;48.770;9.200;2022-09-09T18:15:48;17.80;1.00
296;DHT22;132;48.770;9.200;2022-09-09T18:18:35;17.70;1.00
296;DHT22;132;48.770;9.200;2022-09-09T18:21:22;17.90;1.00
296;DHT22;132;48.770;9.200;2022-09-09T18:24:12;17.80;1.00
296;DHT22;132;48.770;9.200;2022-09-09T18:29:46;17.60;1.00
296;DHT22;132;48.770;9.200;2022-09-09T18:32:33;17.80;1.00
296;DHT22;132;48.770;9.200;2022-09-09T18:35:20;17.80;1.00
296;DHT22;132;48.770;9.200;2022-09-09T18:38:06;17.60;1.00
296;DHT22;132;48.770;9.200;2022-09-09T18:43:41;17.80;1.00
296;DHT22;132;48.770;9.200;2022-09-09T18:46:29;17.90;1.00
296;DHT22;132;48.770;9.200;2022-09-09T18:49:17;18.00;1.00
296;DHT22;132;48.770;9.200;2022-09-09T18:52:03;17.70;1.00
296;DHT22;132;48.770;9.200;2022-09-09T18:57:37;18.10;1.00
296;DHT22;132;48.770;9.200;2022-09-09T19:00:24;17.70;1.00
296;DHT22;132;48.770;9.200;2022-09-09T19:03:11;17.80;1.00
296;DHT22;132;48.770;9.200;2022-09-09T19:06:13;17.90;1.00
296;DHT22;132;48.770;9.200;2022-09-09T19:09:00;17.70;1.00
296;DHT22;132;48.770;9.200;2022-09-09T19:14:34;17.70;1.00
296;DHT22;132;48.770;9.200;2022-09-09T19:20:08;18.40;1.00
296;DHT22;132;48.770;9.200;2022-09-09T19:22:55;17.90;1.00
296;DHT22;132;48.770;9.200;2022-09-09T19:25:42;17.60;1.00
296;DHT22;132;48.770;9.200;2022-09-09T19:28:28;17.50;1.00
296;DHT22;132;48.770;9.200;2022-09-09T19:31:17;17.40;1.00
296;DHT22;132;48.770;9.200;2022-09-09T19:34:04;17.60;1.00
296;DHT22;132;48.770;9.200;2022-09-09T19:42:25;17.50;1.00
296;DHT22;132;48.770;9.200;2022-09-09T19:45:12;17.50;1.00
296;DHT22;132;48.770;9.200;2022-09-09T19:47:58;17.70;1.00
296;DHT22;132;48.770;9.200;2022-09-09T19:50:45;17.30;1.00
296;DHT22;132;48.770;9.200;2022-09-09T19:53:36;17.30;1.00
296;DHT22;132;48.770;9.200;2022-09-09T19:56:25;17.30;1.00
296;DHT22;132;48.770;9.200;2022-09-09T19:59:12;17.30;1.00
296;DHT22;132;48.770;9.200;2022-09-09T20:02:00;17.30;1.00
296;DHT22;132;48.770;9.200;2022-09-09T20:07:34;17.20;1.00
296;DHT22;132;48.770;9.200;2022-09-09T20:10:20;17.10;1.00
296;DHT22;132;48.770;9.200;2022-09-09T20:13:07;17.20;1.00
296;DHT22;132;48.770;9.200;2022-09-09T20:15:58;17.20;1.00
296;DHT22;132;48.770;9.200;2022-09-09T20:18:51;17.20;1.00
296;DHT22;132;48.770;9.200;2022-09-09T20:21:40;17.10;1.00
296;DHT22;132;48.770;9.200;2022-09-09T20:24:29;17.00;1.00
296;DHT22;132;48.770;9.200;2022-09-09T20:27:15;17.20;1.00
296;DHT22;132;48.770;9.200;2022-09-09T20:30:02;17.00;1.00
296;DHT22;132;48.770;9.200;2022-09-09T20:35:36;16.90;1.00
296;DHT22;132;48.770;9.200;2022-09-09T20:38:22;17.00;1.00
296;DHT22;132;48.770;9.200;2022-09-09T20:44:02;16.90;1.00
296;DHT22;132;48.770;9.200;2022-09-09T20:46:53;16.80;1.00
296;DHT22;132;48.770;9.200;2022-09-09T21:00:50;16.70;1.00
296;DHT22;132;48.770;9.200;2022-09-09T21:03:38;16.70;1.00
296;DHT22;132;48.770;9.200;2022-09-09T21:09:12;16.70;1.00
296;DHT22;132;48.770;9.200;2022-09-09T21:11:59;16.70;1.00
296;DHT22;132;48.770;9.200;2022-09-09T21:14:46;16.70;1.00
296;DHT22;132;48.770;9.200;2022-09-09T21:17:33;16.70;1.00
296;DHT22;132;48.770;9.200;2022-09-09T21:20:19;16.70;1.00
296;DHT22;132;48.770;9.200;2022-09-09T21:23:06;16.70;1.00
296;DHT22;132;48.770;9.200;2022-09-09T21:34:14;16.50;1.00
296;DHT22;132;48.770;9.200;2022-09-09T21:48:13;16.30;1.00
296;DHT22;132;48.770;9.200;2022-09-09T21:51:06;16.20;1.00
296;DHT22;132;48.770;9.200;2022-09-09T21:53:54;16.30;1.00
296;DHT22;132;48.770;9.200;2022-09-09T22:05:06;16.00;1.00
296;DHT22;132;48.770;9.200;2022-09-09T22:07:52;16.20;1.00
296;DHT22;132;48.770;9.200;2022-09-09T22:10:41;16.20;1.00
296;DHT22;132;48.770;9.200;2022-09-09T22:16:18;16.40;1.00
296;DHT22;132;48.770;9.200;2022-09-09T22:19:05;16.70;1.00
296;DHT22;132;48.770;9.200;2022-09-09T22:21:52;16.20;1.00
296;DHT22;132;48.770;9.200;2022-09-09T22:24:39;16.30;1.00
296;DHT22;132;48.770;9.200;2022-09-09T22:30:12;16.20;1.00
296;DHT22;132;48.770;9.200;2022-09-09T22:35:46;16.50;1.00
296;DHT22;132;48.770;9.200;2022-09-09T22:44:08;16.50;1.00
296;DHT22;132;48.770;9.200;2022-09-09T22:49:45;16.60;1.00
296;DHT22;132;48.770;9.200;2022-09-09T22:52:32;16.50;1.00
296;DHT22;132;48.770;9.200;2022-09-09T22:55:18;16.50;1.00
296;DHT22;132;48.770;9.200;2022-09-09T22:58:05;16.60;1.00
296;DHT22;132;48.770;9.200;2022-09-09T23:00:52;16.30;1.00
296;DHT22;132;48.770;9.200;2022-09-09T23:03:38;16.60;1.00
296;DHT22;132;48.770;9.200;2022-09-09T23:06:28;16.60;1.00
296;DHT22;132;48.770;9.200;2022-09-09T23:09:15;16.60;1.00
296;DHT22;132;48.770;9.200;2022-09-09T23:12:03;16.60;1.00
296;DHT22;132;48.770;9.200;2022-09-09T23:14:51;16.40;1.00
296;DHT22;132;48.770;9.200;2022-09-09T23:17:39;16.60;1.00
296;DHT22;132;48.770;9.200;2022-09-09T23:20:29;16.50;1.00
296;DHT22;132;48.770;9.200;2022-09-09T23:26:07;16.40;1.00
296;DHT22;132;48.770;9.200;2022-09-09T23:28:55;16.30;1.00
296;DHT22;132;48.770;9.200;2022-09-09T23:31:45;16.20;1.00
296;DHT22;132;48.770;9.200;2022-09-09T23:34:32;15.90;1.00
296;DHT22;132;48.770;9.200;2022-09-09T23:37:18;15.90;1.00
296;DHT22;132;48.770;9.200;2022-09-09T23:42:53;15.70;1.00
296;DHT22;132;48.770;9.200;2022-09-09T23:54:04;15.60;1.00
